PWSweather.com
Personal Weather Stations
Station Observations

TilburgNL

Lat: 51.5791595, Lon: 5.0102304

Elevation: 27.9

Station Type: La-crosse WS 2800

http://www.weerstationtilburgreeshof.nl/

Latest ConditionsUpdated 1:40:14 AM GMT+01:01 Thursday, Aug 16, 2018
Currently Today's Max Today's Min Today's Average
Temperature 59.7°F15.4°C 61.2°F16.2°C 59.7°F15.4°C 60.6°F15.9°C
Dew Point 54.3°F12.4°C 55.0°F12.8°C 54.3°F12.4°C 54.8°F12.7°C
Winds 2.1 mph SW3.4 kmh SW 2.8 mph -4.5 kmh - - 2.4 mph 3.9 kmh
Wind Gusts 2.7 mph4.3 kmh 5.4 mph8.7 kmh - -
Humidity 82% 82% 80% 81%
Pressure 30.06 in1017.9 mb 30.08 in1018.6 mb 30.06 in1017.9 mb -
Hour Temp Dew Point Humidity Winds Wind Gusts Pressure Precip Precip Rate Daily Precip Total
01:40 AM 59.7°F15.4°C 54.3°F12.4°C 82% 2.1 mph SW3.4 kmh SW 2.7 mph4.3 kmh 30.06 in1017.9 mb 0.00 in0.0 mm 0.00 in0.0 mm 0.00 in0.0 mm
01:35 AM 59.7°F15.4°C 54.3°F12.4°C 82% 1.9 mph SW3.1 kmh SW 2.7 mph4.3 kmh 30.06 in1017.9 mb 0.00 in0.0 mm 0.00 in0.0 mm 0.00 in0.0 mm
01:30 AM 59.9°F15.5°C 54.5°F12.5°C 82% 2.2 mph SSW3.5 kmh SSW 3.4 mph5.5 kmh 30.07 in1018.3 mb 0.00 in0.0 mm 0.00 in0.0 mm 0.00 in0.0 mm
01:25 AM 60.1°F15.6°C 54.7°F12.6°C 82% 2.2 mph SSW3.5 kmh SSW 3.4 mph5.5 kmh 30.07 in1018.3 mb 0.00 in0.0 mm 0.00 in0.0 mm 0.00 in0.0 mm
01:20 AM 60.1°F15.6°C 54.7°F12.6°C 82% 2.3 mph SSW3.7 kmh SSW 3.8 mph6.1 kmh 30.07 in1018.3 mb 0.00 in0.0 mm 0.00 in0.0 mm 0.00 in0.0 mm
01:15 AM 60.1°F15.6°C 54.3°F12.4°C 81% 2.5 mph SSW4.0 kmh SSW 3.8 mph6.1 kmh 30.07 in1018.3 mb 0.00 in0.0 mm 0.00 in0.0 mm 0.00 in0.0 mm
01:10 AM 60.3°F15.7°C 54.7°F12.6°C 81% 2.4 mph SW3.9 kmh SW 3.4 mph5.5 kmh 30.07 in1018.3 mb 0.00 in0.0 mm 0.00 in0.0 mm 0.00 in0.0 mm
01:05 AM 60.4°F15.8°C 54.7°F12.6°C 81% 2.3 mph SSW3.7 kmh SSW 3.4 mph5.5 kmh 30.07 in1018.3 mb 0.00 in0.0 mm 0.00 in0.0 mm 0.00 in0.0 mm
01:00 AM 60.4°F15.8°C 54.7°F12.6°C 81% 2.2 mph SSW3.5 kmh SSW 4.5 mph7.2 kmh 30.07 in1018.3 mb 0.00 in0.0 mm 0.00 in0.0 mm 0.00 in0.0 mm
12:55 AM 60.6°F15.9°C 54.9°F12.7°C 81% 2.4 mph SW3.9 kmh SW 4.5 mph7.2 kmh 30.07 in1018.3 mb 0.00 in0.0 mm 0.00 in0.0 mm 0.00 in0.0 mm
12:50 AM 60.6°F15.9°C 54.9°F12.7°C 81% 2.7 mph SSW4.3 kmh SSW 5.4 mph8.7 kmh 30.07 in1018.3 mb 0.00 in0.0 mm 0.00 in0.0 mm 0.00 in0.0 mm
12:45 AM 60.8°F16.0°C 55.0°F12.8°C 81% 2.8 mph SSW4.5 kmh SSW 5.4 mph8.7 kmh 30.07 in1018.3 mb 0.00 in0.0 mm 0.00 in0.0 mm 0.00 in0.0 mm
12:40 AM 60.8°F16.0°C 55.0°F12.8°C 81% 2.5 mph SSW4.0 kmh SSW 3.6 mph5.8 kmh 30.07 in1018.3 mb 0.00 in0.0 mm 0.00 in0.0 mm 0.00 in0.0 mm
12:35 AM 60.8°F16.0°C 55.0°F12.8°C 81% 2.5 mph SSW4.0 kmh SSW 4.7 mph7.6 kmh 30.07 in1018.3 mb 0.00 in0.0 mm 0.00 in0.0 mm 0.00 in0.0 mm
12:30 AM 60.8°F16.0°C 54.7°F12.6°C 80% 2.6 mph SW4.2 kmh SW 4.7 mph7.6 kmh 30.07 in1018.3 mb 0.00 in0.0 mm 0.00 in0.0 mm 0.00 in0.0 mm
12:25 AM 61.0°F16.1°C 54.9°F12.7°C 80% 2.3 mph SSW3.7 kmh SSW 3.4 mph5.5 kmh 30.07 in1018.3 mb 0.00 in0.0 mm 0.00 in0.0 mm 0.00 in0.0 mm
12:20 AM 61.0°F16.1°C 54.9°F12.7°C 80% 2.3 mph S3.7 kmh S 4.0 mph6.4 kmh 30.07 in1018.3 mb 0.00 in0.0 mm 0.00 in0.0 mm 0.00 in0.0 mm
12:15 AM 61.0°F16.1°C 54.9°F12.7°C 80% 2.4 mph SSW3.9 kmh SSW 4.0 mph6.4 kmh 30.07 in1018.3 mb 0.00 in0.0 mm 0.00 in0.0 mm 0.00 in0.0 mm
12:10 AM 61.2°F16.2°C 55.0°F12.8°C 80% 2.4 mph SW3.9 kmh SW 3.4 mph5.5 kmh 30.07 in1018.3 mb 0.00 in0.0 mm 0.00 in0.0 mm 0.00 in0.0 mm
12:05 AM 61.2°F16.2°C 55.0°F12.8°C 80% 2.4 mph SSW3.9 kmh SSW 3.4 mph5.5 kmh 30.07 in1018.3 mb 0.00 in0.0 mm 0.00 in0.0 mm 0.00 in0.0 mm
12:00 AM 61.2°F16.2°C 55.0°F12.8°C 80% 2.7 mph SSW4.3 kmh SSW 4.0 mph6.4 kmh 30.08 in1018.6 mb 0.00 in0.0 mm 0.00 in0.0 mm 0.00 in0.0 mm